Southern Lily — 9VJK4 — position and weather

sailwx.info

Track history (hours):
 
Tides and Currents Weather Stations Pressure Air Temp Water Temp Dewpoint Dewpoint Depression Visibility Wind Speed Wind Dir Waves Ship Positions

Southern Lily

Last reported at 2016-Jun-17 06:33 UTC. Time now 2016-Jun-26 01:05 UTC.
Position S 36°16' E 174°58'.
Warning: this ship's position is 8 days out of date.

Length 146 m; draft 8 m.

Type: Cargo ship. MMSI: 565050000.

Date/timePositionNaut miles runAvg speedWind from/ knotsBaromVisibWave heightAir tempDewpointWater temp
2016-Jun-17 06:33S 36°16' E 174°58'1110.9
2016-Jun-17 05:33S 36°27' E 175°00'1110.7
2016-Jun-17 04:33S 36°38' E 174°57'1110.6
2016-Jun-17 03:33S 36°46' E 174°49'5 4.3
2016-Jun-17 02:24S 36°51' E 174°47'0 0.0
2016-Jun-17 00:18S 36°51' E 174°47'0 0.0
2016-Jun-16 23:24S 36°51' E 174°47'0 0.0
2016-Jun-16 22:30S 36°51' E 174°47'0 0.0
2016-Jun-16 21:30S 36°51' E 174°47'0 0.0
2016-Jun-16 19:30S 36°51' E 174°47'0 0.0
2016-Jun-16 18:30S 36°51' E 174°47'0 0.0
2016-Jun-16 17:30S 36°51' E 174°47'0 0.0
2016-Jun-16 16:30S 36°51' E 174°47'0 0.0
2016-Jun-16 15:30S 36°51' E 174°47'0 0.0
2016-Jun-16 14:30S 36°51' E 174°47'0 0.0
2016-Jun-16 13:30S 36°51' E 174°47'0 0.0
2016-Jun-16 12:18S 36°51' E 174°47'0 0.0
2016-Jun-16 11:30S 36°51' E 174°47'0 0.0
2016-Jun-16 10:30S 36°51' E 174°47'0 0.0
2016-Jun-16 09:30S 36°51' E 174°47'0 0.0
2016-Jun-16 08:30S 36°51' E 174°47'0 0.0
2016-Jun-16 07:30S 36°51' E 174°47'0 0.0
2016-Jun-16 06:30S 36°51' E 174°47'0 0.0
2016-Jun-16 05:30S 36°51' E 174°47'0 0.0
2016-Jun-16 04:30S 36°51' E 174°47'0 0.0
2016-Jun-16 03:30S 36°51' E 174°47'0 0.0
2016-Jun-16 02:30S 36°51' E 174°47'0 0.0
2016-Jun-16 01:30S 36°51' E 174°47'0 0.0
2016-Jun-16 00:30S 36°51' E 174°47'0 0.0
2016-Jun-15 23:30S 36°51' E 174°47'0 0.0
2016-Jun-15 22:30S 36°51' E 174°47'0 0.0
2016-Jun-15 21:30S 36°51' E 174°47'0 0.0
2016-Jun-15 20:30S 36°51' E 174°47'0 0.0
2016-Jun-15 19:30S 36°51' E 174°47'0 0.2
2016-Jun-15 18:29S 36°51' E 174°47'0 0.0
2016-Jun-15 17:29S 36°51' E 174°47'0 0.0
2016-Jun-15 16:29S 36°51' E 174°47'0 0.0
2016-Jun-15 15:29S 36°51' E 174°47'0 0.0
2016-Jun-15 13:23S 36°51' E 174°47'1 1.0
2016-Jun-15 12:33S 36°50' E 174°48'9 9.2
2016-Jun-15 11:33S 36°42' E 174°53'9 8.6
2016-Jun-15 10:33S 36°35' E 174°59'9 8.6
2016-Jun-15 09:33S 36°26' E 175°00'9 8.5
2016-Jun-15 08:33S 36°18' E 174°58'  
Track history (hours):
 
Tides and Currents Weather Stations Pressure Air Temp Water Temp Dewpoint Dewpoint Depression Visibility Wind Speed Wind Dir Waves Ship Positions

Southern Lily

Last reported at 2016-Jun-17 06:33 UTC. Time now 2016-Jun-26 01:05 UTC.
Position S 36°16' E 174°58'.
Warning: this ship's position is 8 days out of date.

Length 146 m; draft 8 m.

Type: Cargo ship. MMSI: 565050000.

Date/timePositionNaut miles runAvg speedWind from/ knotsBaromVisibWave heightAir tempDewpointWater temp
2016-Jun-17 06:33S 36°16' E 174°58'1110.9
2016-Jun-17 05:33S 36°27' E 175°00'1110.7
2016-Jun-17 04:33S 36°38' E 174°57'1110.6
2016-Jun-17 03:33S 36°46' E 174°49'5 4.3
2016-Jun-17 02:24S 36°51' E 174°47'0 0.0
2016-Jun-17 00:18S 36°51' E 174°47'0 0.0
2016-Jun-16 23:24S 36°51' E 174°47'0 0.0
2016-Jun-16 22:30S 36°51' E 174°47'0 0.0
2016-Jun-16 21:30S 36°51' E 174°47'0 0.0
2016-Jun-16 19:30S 36°51' E 174°47'0 0.0
2016-Jun-16 18:30S 36°51' E 174°47'0 0.0
2016-Jun-16 17:30S 36°51' E 174°47'0 0.0
2016-Jun-16 16:30S 36°51' E 174°47'0 0.0
2016-Jun-16 15:30S 36°51' E 174°47'0 0.0
2016-Jun-16 14:30S 36°51' E 174°47'0 0.0
2016-Jun-16 13:30S 36°51' E 174°47'0 0.0
2016-Jun-16 12:18S 36°51' E 174°47'0 0.0
2016-Jun-16 11:30S 36°51' E 174°47'0 0.0
2016-Jun-16 10:30S 36°51' E 174°47'0 0.0
2016-Jun-16 09:30S 36°51' E 174°47'0 0.0
2016-Jun-16 08:30S 36°51' E 174°47'0 0.0
2016-Jun-16 07:30S 36°51' E 174°47'0 0.0
2016-Jun-16 06:30S 36°51' E 174°47'0 0.0
2016-Jun-16 05:30S 36°51' E 174°47'0 0.0
2016-Jun-16 04:30S 36°51' E 174°47'0 0.0
2016-Jun-16 03:30S 36°51' E 174°47'0 0.0
2016-Jun-16 02:30S 36°51' E 174°47'0 0.0
2016-Jun-16 01:30S 36°51' E 174°47'0 0.0
2016-Jun-16 00:30S 36°51' E 174°47'0 0.0
2016-Jun-15 23:30S 36°51' E 174°47'0 0.0
2016-Jun-15 22:30S 36°51' E 174°47'0 0.0
2016-Jun-15 21:30S 36°51' E 174°47'0 0.0
2016-Jun-15 20:30S 36°51' E 174°47'0 0.0
2016-Jun-15 19:30S 36°51' E 174°47'0 0.2
2016-Jun-15 18:29S 36°51' E 174°47'0 0.0
2016-Jun-15 17:29S 36°51' E 174°47'0 0.0
2016-Jun-15 16:29S 36°51' E 174°47'0 0.0
2016-Jun-15 15:29S 36°51' E 174°47'0 0.0
2016-Jun-15 13:23S 36°51' E 174°47'1 1.0
2016-Jun-15 12:33S 36°50' E 174°48'9 9.2
2016-Jun-15 11:33S 36°42' E 174°53'9 8.6
2016-Jun-15 10:33S 36°35' E 174°59'9 8.6
2016-Jun-15 09:33S 36°26' E 175°00'9 8.5
2016-Jun-15 08:33S 36°18' E 174°58'  

Dump ship's entire track history